createdAt,value
2017-11-16T00:00:41.990Z,9.56
2017-11-16T00:01:51.378Z,9.57
2017-11-16T00:03:00.211Z,9.54
2017-11-16T00:04:09.043Z,9.51
2017-11-16T00:05:18.004Z,9.56
2017-11-16T00:06:26.808Z,9.53
2017-11-16T00:07:35.638Z,9.51
2017-11-16T00:08:45.029Z,9.47
2017-11-16T00:09:53.860Z,9.57
2017-11-16T00:11:02.939Z,9.5
2017-11-16T00:12:12.061Z,9.56
2017-11-16T00:13:20.885Z,9.48
2017-11-16T00:14:29.715Z,9.58
2017-11-16T00:15:38.545Z,9.57
2017-11-16T00:16:47.769Z,9.5
2017-11-16T00:17:56.597Z,9.58
2017-11-16T00:19:05.425Z,9.64
2017-11-16T00:20:14.257Z,9.65
2017-11-16T00:21:23.087Z,9.64
2017-11-16T00:22:32.495Z,9.6
2017-11-16T00:23:41.325Z,9.53
2017-11-16T00:24:50.154Z,9.56
2017-11-16T00:25:58.985Z,9.53
2017-11-16T00:27:07.817Z,9.53
2017-11-16T00:28:17.223Z,9.51
2017-11-16T00:29:26.055Z,9.47
2017-11-16T00:30:35.204Z,9.57
2017-11-16T00:31:44.033Z,9.47
2017-11-16T00:32:52.865Z,9.6
2017-11-16T00:34:01.995Z,9.56
2017-11-16T00:35:10.876Z,9.61
2017-11-16T00:36:19.709Z,9.56
2017-11-16T00:37:28.539Z,9.6
2017-11-16T00:38:37.372Z,9.61
2017-11-16T00:39:46.504Z,9.61
2017-11-16T00:40:55.331Z,9.58
2017-11-16T00:42:04.242Z,9.5
2017-11-16T00:43:13.045Z,9.48
2017-11-16T00:44:21.870Z,9.53
2017-11-16T00:45:30.951Z,9.58
2017-11-16T00:46:39.782Z,9.57
2017-11-16T00:47:48.613Z,9.4
2017-11-16T00:48:57.443Z,9.48
2017-11-16T00:50:06.272Z,9.51
2017-11-16T00:51:15.109Z,9.54
2017-11-16T00:52:24.517Z,9.51
2017-11-16T00:53:33.327Z,9.53
2017-11-16T00:54:42.160Z,9.53
2017-11-16T00:55:50.989Z,9.5
2017-11-16T00:56:59.817Z,9.51
2017-11-16T00:58:08.648Z,9.54
2017-11-16T00:59:17.479Z,9.48
2017-11-16T01:00:26.312Z,9.51
2017-11-16T01:01:35.140Z,9.48
2017-11-16T01:02:44.323Z,9.53
2017-11-16T01:03:53.155Z,9.53
2017-11-16T01:05:01.985Z,9.61
2017-11-16T01:06:11.101Z,9.53
2017-11-16T01:07:19.930Z,9.5
2017-11-16T01:08:29.163Z,9.53
2017-11-16T01:09:37.996Z,9.48
2017-11-16T01:10:46.832Z,9.48
2017-11-16T01:11:55.661Z,9.47
2017-11-16T01:13:04.493Z,9.43
2017-11-16T01:14:13.384Z,9.4
2017-11-16T01:15:22.204Z,9.47
2017-11-16T01:16:31.035Z,9.56
2017-11-16T01:17:39.866Z,9.48
2017-11-16T01:18:48.696Z,9.54
2017-11-16T01:19:57.678Z,9.6
2017-11-16T01:21:06.788Z,9.5
2017-11-16T01:22:15.620Z,9.61
2017-11-16T01:23:24.452Z,9.47
2017-11-16T01:24:33.288Z,9.51
2017-11-16T01:25:42.266Z,9.51
2017-11-16T01:26:51.651Z,9.5
2017-11-16T01:28:00.479Z,9.43
2017-11-16T01:29:09.308Z,9.42
2017-11-16T01:30:18.142Z,9.4
2017-11-16T01:31:27.272Z,9.38
2017-11-16T01:32:36.101Z,9.47
2017-11-16T01:33:44.934Z,9.4
2017-11-16T01:34:53.763Z,9.42
2017-11-16T01:36:02.872Z,9.39
2017-11-16T01:37:11.702Z,9.42
2017-11-16T01:38:22.091Z,9.4
2017-11-16T01:39:30.921Z,9.4
2017-11-16T01:40:40.034Z,9.48
2017-11-16T01:41:48.855Z,9.39
2017-11-16T01:42:58.037Z,9.48
2017-11-16T01:44:07.145Z,9.4
2017-11-16T01:45:16.255Z,9.43
2017-11-16T01:46:25.086Z,9.48
2017-11-16T01:47:33.914Z,9.48
2017-11-16T01:48:42.793Z,9.47
2017-11-16T01:49:51.628Z,9.46
2017-11-16T01:51:00.461Z,9.43
2017-11-16T01:52:09.566Z,9.53
2017-11-16T01:53:18.395Z,9.51
2017-11-16T01:54:27.378Z,9.57
2017-11-16T01:55:36.491Z,9.5
2017-11-16T01:56:45.320Z,9.4
2017-11-16T01:57:54.151Z,9.46
2017-11-16T01:59:02.978Z,9.43
2017-11-16T02:00:12.269Z,9.5
2017-11-16T02:01:21.128Z,9.48
2017-11-16T02:02:29.933Z,9.47
2017-11-16T02:03:38.762Z,9.4
2017-11-16T02:04:47.591Z,9.46
2017-11-16T02:05:57.336Z,9.43
2017-11-16T02:07:06.722Z,9.4
2017-11-16T02:08:15.552Z,9.36
2017-11-16T02:09:24.379Z,9.4
2017-11-16T02:10:33.208Z,9.36
2017-11-16T02:11:42.356Z,9.46
2017-11-16T02:12:51.485Z,9.4
2017-11-16T02:14:00.316Z,9.39
2017-11-16T02:15:09.429Z,9.38
2017-11-16T02:16:18.260Z,9.38
2017-11-16T02:17:27.892Z,9.43
2017-11-16T02:18:36.723Z,9.43
2017-11-16T02:19:45.553Z,9.46
2017-11-16T02:20:54.381Z,9.38
2017-11-16T02:22:03.213Z,9.39
2017-11-16T02:23:12.048Z,9.32
2017-11-16T02:24:20.873Z,9.42
2017-11-16T02:25:29.702Z,9.32
2017-11-16T02:26:38.534Z,9.38
2017-11-16T02:27:47.360Z,9.39
2017-11-16T02:28:56.442Z,9.38
2017-11-16T02:30:05.266Z,9.38
2017-11-16T02:31:14.102Z,9.33
2017-11-16T02:32:23.212Z,9.32
2017-11-16T02:33:32.042Z,9.31
2017-11-16T02:34:41.030Z,9.32
2017-11-16T02:35:49.862Z,9.29
2017-11-16T02:36:58.691Z,9.28
2017-11-16T02:38:07.521Z,9.29
2017-11-16T02:39:16.352Z,9.26
2017-11-16T02:40:25.994Z,9.29
2017-11-16T02:41:35.109Z,9.36
2017-11-16T02:42:43.940Z,9.33
2017-11-16T02:43:52.772Z,9.21
2017-11-16T02:45:01.602Z,9.26
2017-11-16T02:46:10.581Z,9.31
2017-11-16T02:47:19.413Z,9.33
2017-11-16T02:48:28.250Z,9.38
2017-11-16T02:49:37.077Z,9.35
2017-11-16T02:50:45.911Z,9.39
2017-11-16T02:51:55.127Z,9.33
2017-11-16T02:53:04.513Z,9.33
2017-11-16T02:54:13.345Z,9.4
2017-11-16T02:55:22.455Z,9.38
2017-11-16T02:56:31.286Z,9.43
2017-11-16T02:57:40.116Z,9.35
2017-11-16T02:58:48.958Z,9.38
2017-11-16T02:59:57.776Z,9.42
2017-11-16T03:01:06.608Z,9.38
2017-11-16T03:02:15.730Z,9.38
2017-11-16T03:03:24.712Z,9.42
2017-11-16T03:04:33.542Z,9.39
2017-11-16T03:05:42.657Z,9.35
2017-11-16T03:06:51.486Z,9.36
2017-11-16T03:08:00.319Z,9.36
2017-11-16T03:09:09.197Z,9.4
2017-11-16T03:10:18.029Z,9.38
2017-11-16T03:11:27.150Z,9.39
2017-11-16T03:12:35.980Z,9.39
2017-11-16T03:13:44.812Z,9.36
2017-11-16T03:14:53.638Z,9.47
2017-11-16T03:16:02.472Z,9.36
2017-11-16T03:17:11.295Z,9.38
2017-11-16T03:18:20.125Z,9.43
2017-11-16T03:19:28.959Z,9.39
2017-11-16T03:20:38.066Z,9.35
2017-11-16T03:21:46.896Z,9.4
2017-11-16T03:22:55.727Z,9.36
2017-11-16T03:24:04.840Z,9.36
2017-11-16T03:25:13.674Z,9.4
2017-11-16T03:26:22.651Z,9.4
2017-11-16T03:27:31.479Z,9.43
2017-11-16T03:28:40.310Z,9.47
2017-11-16T03:29:49.421Z,9.4
2017-11-16T03:30:58.253Z,9.43
2017-11-16T03:32:07.233Z,9.4
2017-11-16T03:33:16.071Z,9.42
2017-11-16T03:34:24.897Z,9.5
2017-11-16T03:35:33.727Z,9.43
2017-11-16T03:36:42.555Z,9.43
2017-11-16T03:37:51.384Z,9.48
2017-11-16T03:39:00.216Z,9.53
2017-11-16T03:40:09.045Z,9.43
2017-11-16T03:41:17.874Z,9.39
2017-11-16T03:42:26.717Z,9.43
2017-11-16T03:43:35.860Z,9.51
2017-11-16T03:44:44.690Z,9.46
2017-11-16T03:45:53.523Z,9.4
2017-11-16T03:47:02.354Z,9.47
2017-11-16T03:48:11.183Z,9.47
2017-11-16T03:49:20.014Z,9.46
2017-11-16T03:50:28.843Z,9.42
2017-11-16T03:51:37.674Z,9.4
2017-11-16T03:52:46.500Z,9.42
2017-11-16T03:53:55.333Z,9.54
2017-11-16T03:55:04.363Z,9.51
2017-11-16T03:56:13.195Z,9.4
2017-11-16T03:57:22.028Z,9.43
2017-11-16T03:58:31.143Z,9.47
2017-11-16T03:59:39.976Z,9.48
2017-11-16T04:00:48.803Z,9.48
2017-11-16T04:01:57.639Z,9.43
2017-11-16T04:03:06.464Z,9.46
2017-11-16T04:04:15.298Z,9.46
2017-11-16T04:05:24.132Z,9.38
2017-11-16T04:06:32.957Z,9.48
2017-11-16T04:07:41.788Z,9.54
2017-11-16T04:08:50.907Z,9.5
2017-11-16T04:09:59.736Z,9.53
2017-11-16T04:11:08.567Z,9.51
2017-11-16T04:12:17.548Z,9.53
2017-11-16T04:13:26.393Z,9.51
2017-11-16T04:14:35.223Z,9.48
2017-11-16T04:15:44.064Z,9.51
2017-11-16T04:16:52.892Z,9.53
2017-11-16T04:18:01.724Z,9.56
2017-11-16T04:19:10.551Z,9.54
2017-11-16T04:20:19.664Z,9.54
2017-11-16T04:21:28.491Z,9.58
2017-11-16T04:22:37.323Z,9.5
2017-11-16T04:23:46.151Z,9.53
2017-11-16T04:24:54.982Z,9.53
2017-11-16T04:26:03.813Z,9.53
2017-11-16T04:27:12.646Z,9.57
2017-11-16T04:28:21.481Z,9.51
2017-11-16T04:29:30.611Z,9.54
2017-11-16T04:30:39.726Z,9.5
2017-11-16T04:31:48.556Z,9.53
2017-11-16T04:32:57.386Z,9.51
2017-11-16T04:34:06.217Z,9.53
2017-11-16T04:35:15.046Z,9.53
2017-11-16T04:36:23.877Z,9.54
2017-11-16T04:37:32.711Z,9.57
2017-11-16T04:38:41.541Z,9.53
2017-11-16T04:39:50.375Z,9.54
2017-11-16T04:40:59.254Z,9.56
2017-11-16T04:42:08.084Z,9.57
2017-11-16T04:43:16.911Z,9.56
2017-11-16T04:44:25.741Z,9.53
2017-11-16T04:45:34.858Z,9.53
2017-11-16T04:46:43.687Z,9.51
2017-11-16T04:47:52.518Z,9.53
2017-11-16T04:49:01.347Z,9.4
2017-11-16T04:50:10.180Z,9.4
2017-11-16T04:51:19.317Z,9.43
2017-11-16T04:52:28.193Z,9.43
2017-11-16T04:53:37.026Z,9.54
2017-11-16T04:54:45.855Z,9.46
2017-11-16T04:55:54.694Z,9.51
2017-11-16T04:57:03.803Z,9.51
2017-11-16T04:58:12.664Z,9.53
2017-11-16T04:59:21.463Z,9.56
2017-11-16T05:00:30.293Z,9.51
2017-11-16T05:01:39.125Z,9.56
2017-11-16T05:02:47.954Z,9.56
2017-11-16T05:03:56.784Z,9.58
2017-11-16T05:05:05.615Z,9.54
2017-11-16T05:06:14.446Z,9.56
2017-11-16T05:07:23.584Z,9.57
2017-11-16T05:08:32.410Z,9.56
2017-11-16T05:09:41.238Z,9.53
2017-11-16T05:10:50.070Z,9.58
2017-11-16T05:11:58.907Z,9.46
2017-11-16T05:13:07.738Z,9.5
2017-11-16T05:14:16.568Z,9.4
2017-11-16T05:15:25.498Z,9.53
2017-11-16T05:16:34.326Z,9.43
2017-11-16T05:17:43.156Z,9.61
2017-11-16T05:18:51.987Z,9.54
2017-11-16T05:20:01.097Z,9.51
2017-11-16T05:21:10.209Z,9.42
2017-11-16T05:22:19.035Z,9.54
2017-11-16T05:23:28.147Z,9.42
2017-11-16T05:24:36.974Z,9.4
2017-11-16T05:25:45.807Z,9.47
2017-11-16T05:26:54.924Z,9.47
2017-11-16T05:28:03.756Z,9.4
2017-11-16T05:29:12.584Z,9.43
2017-11-16T05:30:21.416Z,9.47
2017-11-16T05:31:30.246Z,9.38
2017-11-16T05:32:39.126Z,9.4
2017-11-16T05:33:47.957Z,9.4
2017-11-16T05:34:56.782Z,9.46
2017-11-16T05:36:05.613Z,9.48
2017-11-16T05:37:14.443Z,9.48
2017-11-16T05:38:23.572Z,9.56
2017-11-16T05:39:32.684Z,9.53
2017-11-16T05:40:41.514Z,9.53
2017-11-16T05:41:50.343Z,9.46
2017-11-16T05:42:59.173Z,9.54
2017-11-16T05:44:08.158Z,9.51
2017-11-16T05:45:16.991Z,9.57
2017-11-16T05:46:25.824Z,9.53
2017-11-16T05:47:34.651Z,9.51
2017-11-16T05:48:43.480Z,9.51
2017-11-16T05:49:52.462Z,9.5
2017-11-16T05:51:01.293Z,9.54
2017-11-16T05:52:10.125Z,9.54
2017-11-16T05:53:18.956Z,9.54
2017-11-16T05:54:27.835Z,9.48
2017-11-16T05:55:36.717Z,9.56
2017-11-16T05:56:45.549Z,9.54
2017-11-16T05:57:54.380Z,9.53
2017-11-16T05:59:03.490Z,9.54
2017-11-16T06:00:12.609Z,9.6
2017-11-16T06:01:21.541Z,9.56
2017-11-16T06:02:30.372Z,9.51
2017-11-16T06:03:39.490Z,9.57
2017-11-16T06:04:48.319Z,9.56
2017-11-16T06:05:57.151Z,9.56
2017-11-16T06:07:05.982Z,9.54
2017-11-16T06:08:14.812Z,9.51
2017-11-16T06:09:23.644Z,9.56
2017-11-16T06:10:32.475Z,9.53
2017-11-16T06:11:41.308Z,9.57
2017-11-16T06:12:50.472Z,9.54
2017-11-16T06:13:59.324Z,9.56
2017-11-16T06:15:08.135Z,9.51
2017-11-16T06:16:17.249Z,9.56
2017-11-16T06:17:26.365Z,9.54
2017-11-16T06:18:35.347Z,9.56
2017-11-16T06:19:44.175Z,9.48
2017-11-16T06:20:53.006Z,9.48
2017-11-16T06:22:01.837Z,9.68
2017-11-16T06:23:10.717Z,9.57
2017-11-16T06:24:19.650Z,9.56
2017-11-16T06:25:28.481Z,9.54
2017-11-16T06:26:37.311Z,9.56
2017-11-16T06:27:46.431Z,9.57
2017-11-16T06:28:55.270Z,9.56
2017-11-16T06:30:04.147Z,9.48
2017-11-16T06:31:12.976Z,9.57
2017-11-16T06:32:21.805Z,9.46
2017-11-16T06:33:30.638Z,9.54
2017-11-16T06:34:39.470Z,9.5
2017-11-16T06:35:48.979Z,9.48
2017-11-16T06:36:57.810Z,9.48
2017-11-16T06:38:06.661Z,9.53
2017-11-16T06:39:15.471Z,9.53
2017-11-16T06:40:24.299Z,9.58
2017-11-16T06:41:33.180Z,9.57
2017-11-16T06:42:42.013Z,9.54
2017-11-16T06:43:50.846Z,9.61
2017-11-16T06:44:59.677Z,9.56
2017-11-16T06:46:08.510Z,9.5
2017-11-16T06:47:17.441Z,9.5
2017-11-16T06:48:26.269Z,9.46
2017-11-16T06:49:35.101Z,9.51
2017-11-16T06:50:43.932Z,9.51
2017-11-16T06:51:52.764Z,9.53
2017-11-16T06:53:01.692Z,9.53
2017-11-16T06:54:10.524Z,9.5
2017-11-16T06:55:19.355Z,9.54
2017-11-16T06:56:28.186Z,9.48
2017-11-16T06:57:37.019Z,9.47
2017-11-16T06:58:45.900Z,9.51
2017-11-16T06:59:54.735Z,9.47
2017-11-16T07:01:03.582Z,9.36
2017-11-16T07:02:12.400Z,9.35
2017-11-16T07:03:21.231Z,9.43
2017-11-16T07:04:30.064Z,9.43
2017-11-16T07:05:38.893Z,9.43
2017-11-16T07:06:48.012Z,9.46
2017-11-16T07:07:56.841Z,9.54
2017-11-16T07:09:05.675Z,9.42
2017-11-16T07:10:14.933Z,9.4
2017-11-16T07:11:23.769Z,9.48
2017-11-16T07:12:32.600Z,9.48
2017-11-16T07:13:41.707Z,9.4
2017-11-16T07:14:50.538Z,9.43
2017-11-16T07:15:59.668Z,9.5
2017-11-16T07:17:08.602Z,9.5
2017-11-16T07:18:17.431Z,9.5
2017-11-16T07:19:26.263Z,9.48
2017-11-16T07:20:35.095Z,9.43
2017-11-16T07:21:44.176Z,9.36
2017-11-16T07:22:53.325Z,9.43
2017-11-16T07:24:02.156Z,9.39
2017-11-16T07:25:11.086Z,9.46
2017-11-16T07:26:20.194Z,9.43
2017-11-16T07:27:29.125Z,9.48
2017-11-16T07:28:37.965Z,9.39
2017-11-16T07:29:46.786Z,9.4
2017-11-16T07:30:55.618Z,9.32
2017-11-16T07:32:04.736Z,9.35
2017-11-16T07:33:13.679Z,9.39
2017-11-16T07:34:22.507Z,9.35
2017-11-16T07:35:31.338Z,9.42
2017-11-16T07:36:40.732Z,9.4
2017-11-16T07:37:49.561Z,9.35
2017-11-16T07:38:58.389Z,9.33
2017-11-16T07:40:07.220Z,9.33
2017-11-16T07:41:16.332Z,9.35
2017-11-16T07:42:25.161Z,9.35
2017-11-16T07:43:33.993Z,9.29
2017-11-16T07:44:42.926Z,9.31
2017-11-16T07:45:51.758Z,9.32
2017-11-16T07:47:00.886Z,9.35
2017-11-16T07:48:09.993Z,9.33
2017-11-16T07:49:18.822Z,9.29
2017-11-16T07:50:27.904Z,9.2
2017-11-16T07:51:36.738Z,9.29
2017-11-16T07:52:45.568Z,9.29
2017-11-16T07:53:54.680Z,9.29
2017-11-16T07:55:03.512Z,9.23
2017-11-16T07:56:12.400Z,9.33
2017-11-16T07:57:21.231Z,9.29
2017-11-16T07:58:30.071Z,9.23
2017-11-16T07:59:38.906Z,9.15
2017-11-16T08:00:47.733Z,9.23
2017-11-16T08:01:56.862Z,9.17
2017-11-16T08:03:05.692Z,9.21
2017-11-16T08:04:14.523Z,9.24
2017-11-16T08:05:23.631Z,9.28
2017-11-16T08:06:32.471Z,9.21
2017-11-16T08:07:41.875Z,9.28
2017-11-16T08:08:50.705Z,9.21
2017-11-16T08:09:59.536Z,9.33
2017-11-16T08:11:08.369Z,9.23
2017-11-16T08:12:17.198Z,9.23
2017-11-16T08:13:26.027Z,9.28
2017-11-16T08:14:34.860Z,9.28
2017-11-16T08:15:43.689Z,9.26
2017-11-16T08:16:52.523Z,9.24
2017-11-16T08:18:01.356Z,9.21
2017-11-16T08:19:10.338Z,9.26
2017-11-16T08:20:19.168Z,9.2
2017-11-16T08:21:27.998Z,9.24
2017-11-16T08:22:36.833Z,9.2
2017-11-16T08:23:45.662Z,9.28
2017-11-16T08:24:54.594Z,9.2
2017-11-16T08:26:03.427Z,9.17
2017-11-16T08:27:12.261Z,9.14
2017-11-16T08:28:21.370Z,9.28
2017-11-16T08:29:30.203Z,9.26
2017-11-16T08:30:39.183Z,9.2
2017-11-16T08:31:48.015Z,9.28
2017-11-16T08:32:56.845Z,9.23
2017-11-16T08:34:05.690Z,9.26
2017-11-16T08:35:14.506Z,9.35
2017-11-16T08:36:23.738Z,9.24
2017-11-16T08:37:32.603Z,9.29
2017-11-16T08:38:41.680Z,9.24
2017-11-16T08:39:50.511Z,9.23
2017-11-16T08:40:59.377Z,9.23
2017-11-16T08:42:08.374Z,9.24
2017-11-16T08:43:17.204Z,9.28
2017-11-16T08:44:26.038Z,9.32
2017-11-16T08:45:34.881Z,9.28
2017-11-16T08:46:43.992Z,9.35
2017-11-16T08:47:52.973Z,9.33
2017-11-16T08:49:01.805Z,9.39
2017-11-16T08:50:10.634Z,9.4
2017-11-16T08:51:19.467Z,9.31
2017-11-16T08:52:28.299Z,9.28
2017-11-16T08:53:37.186Z,9.2
2017-11-16T08:54:46.015Z,9.21
2017-11-16T08:55:54.848Z,9.24
2017-11-16T08:57:03.678Z,9.24
2017-11-16T08:58:12.510Z,9.24
2017-11-16T08:59:21.442Z,9.24
2017-11-16T09:00:30.274Z,9.28
2017-11-16T09:01:39.104Z,9.24
2017-11-16T09:02:47.936Z,9.21
2017-11-16T09:03:56.769Z,9.28
2017-11-16T09:05:05.652Z,9.26
2017-11-16T09:06:14.508Z,9.24
2017-11-16T09:07:23.871Z,9.23
2017-11-16T09:08:32.701Z,9.15
2017-11-16T09:09:41.547Z,9.23
2017-11-16T09:10:50.705Z,9.29
2017-11-16T09:11:59.536Z,9.23
2017-11-16T09:13:08.368Z,9.26
2017-11-16T09:14:17.198Z,9.28
2017-11-16T09:15:26.030Z,9.24
2017-11-16T09:16:34.860Z,9.28
2017-11-16T09:17:43.689Z,9.17
2017-11-16T09:18:52.523Z,9.23
2017-11-16T09:20:01.355Z,9.26
2017-11-16T09:21:10.187Z,9.23
2017-11-16T09:22:19.138Z,9.21
2017-11-16T09:23:27.951Z,9.23
2017-11-16T09:24:36.782Z,9.26
2017-11-16T09:25:45.616Z,9.24
2017-11-16T09:26:54.447Z,9.32
2017-11-16T09:28:03.829Z,9.33
2017-11-16T09:29:12.664Z,9.23
2017-11-16T09:30:21.503Z,9.28
2017-11-16T09:31:30.618Z,9.21
2017-11-16T09:32:39.785Z,9.23
2017-11-16T09:33:49.140Z,9.29
2017-11-16T09:34:57.973Z,9.15
2017-11-16T09:36:06.805Z,9.23
2017-11-16T09:37:15.637Z,9.18
2017-11-16T09:38:24.466Z,9.23
2017-11-16T09:39:33.296Z,9.26
2017-11-16T09:40:42.124Z,9.24
2017-11-16T09:41:50.955Z,9.17
2017-11-16T09:42:59.789Z,9.23
2017-11-16T09:44:08.620Z,9.24
2017-11-16T09:45:17.851Z,9.28
2017-11-16T09:46:26.680Z,9.2
2017-11-16T09:47:35.789Z,9.23
2017-11-16T09:48:44.621Z,9.18
2017-11-16T09:49:53.458Z,9.33
2017-11-16T09:51:03.009Z,9.24
2017-11-16T09:52:11.840Z,9.28
2017-11-16T09:53:20.669Z,9.31
2017-11-16T09:54:29.781Z,9.33
2017-11-16T09:55:38.611Z,9.2
2017-11-16T09:56:47.490Z,9.26
2017-11-16T09:57:56.323Z,9.28
2017-11-16T09:59:05.156Z,9.24
2017-11-16T10:00:13.985Z,9.21
2017-11-16T10:01:22.815Z,9.23
2017-11-16T10:02:31.997Z,9.21
2017-11-16T10:03:40.828Z,9.23
2017-11-16T10:04:49.660Z,9.24
2017-11-16T10:05:58.492Z,9.2
2017-11-16T10:07:07.317Z,9.21
2017-11-16T10:08:16.248Z,9.23
2017-11-16T10:09:25.081Z,9.28
2017-11-16T10:10:33.915Z,9.23
2017-11-16T10:11:42.745Z,9.23
2017-11-16T10:12:51.584Z,9.17
2017-11-16T10:14:00.792Z,9.26
2017-11-16T10:15:09.625Z,9.2
2017-11-16T10:16:18.455Z,9.21
2017-11-16T10:17:27.577Z,9.18
2017-11-16T10:18:36.418Z,9.15
2017-11-16T10:19:45.697Z,9.15
2017-11-16T10:20:54.528Z,9.1
2017-11-16T10:22:03.357Z,9.13
2017-11-16T10:23:12.189Z,9.18
2017-11-16T10:24:21.023Z,9.29
2017-11-16T10:25:30.202Z,9.21
2017-11-16T10:26:39.032Z,9.23
2017-11-16T10:27:47.865Z,9.17
2017-11-16T10:28:56.700Z,9.11
2017-11-16T10:30:05.528Z,9.26
2017-11-16T10:31:14.560Z,9.26
2017-11-16T10:32:23.393Z,9.11
2017-11-16T10:33:32.223Z,9.23
2017-11-16T10:34:41.053Z,9.2
2017-11-16T10:35:50.172Z,9.21
2017-11-16T10:36:59.153Z,9.23
2017-11-16T10:38:08.263Z,9.15
2017-11-16T10:39:17.095Z,9.21
2017-11-16T10:40:25.927Z,9.18
2017-11-16T10:41:35.035Z,9.24
2017-11-16T10:42:43.916Z,9.18
2017-11-16T10:43:52.746Z,9.24
2017-11-16T10:45:01.578Z,9.17
2017-11-16T10:46:10.407Z,9.18
2017-11-16T10:47:19.516Z,9.23
2017-11-16T10:48:28.397Z,9.29
2017-11-16T10:49:37.227Z,9.21
2017-11-16T10:50:46.334Z,9.28
2017-11-16T10:51:55.166Z,9.26
2017-11-16T10:53:03.999Z,9.14
2017-11-16T10:54:13.128Z,9.21
2017-11-16T10:55:21.958Z,9.18
2017-11-16T10:56:30.792Z,9.18
2017-11-16T10:57:39.622Z,9.21
2017-11-16T10:58:48.782Z,9.26
2017-11-16T10:59:57.896Z,9.18
2017-11-16T11:01:06.729Z,9.2
2017-11-16T11:02:15.556Z,9.28
2017-11-16T11:03:24.678Z,9.24
2017-11-16T11:04:33.501Z,9.32
2017-11-16T11:05:42.584Z,9.26
2017-11-16T11:06:51.414Z,9.26
2017-11-16T11:08:00.245Z,9.26
2017-11-16T11:09:09.078Z,9.24
2017-11-16T11:10:17.910Z,9.23
2017-11-16T11:11:26.840Z,9.36
2017-11-16T11:12:35.953Z,9.32
2017-11-16T11:13:44.825Z,9.35
2017-11-16T11:14:53.618Z,9.33
2017-11-16T11:16:02.449Z,9.29
2017-11-16T11:17:11.342Z,9.36
2017-11-16T11:18:20.180Z,9.38
2017-11-16T11:19:29.000Z,9.47
2017-11-16T11:20:37.834Z,9.38
2017-11-16T11:21:46.663Z,9.46
2017-11-16T11:22:55.544Z,9.54
2017-11-16T11:24:04.660Z,9.53
2017-11-16T11:25:13.494Z,9.48
2017-11-16T11:26:22.327Z,9.64
2017-11-16T11:27:31.160Z,9.64
2017-11-16T11:28:40.243Z,9.53
2017-11-16T11:29:49.079Z,9.68
2017-11-16T11:30:57.911Z,9.66
2017-11-16T11:32:07.022Z,9.65
2017-11-16T11:33:15.855Z,9.66
2017-11-16T11:34:25.090Z,9.69
2017-11-16T11:35:33.923Z,9.66
2017-11-16T11:36:42.753Z,9.71
2017-11-16T11:37:51.584Z,9.81
2017-11-16T11:39:00.416Z,9.74
2017-11-16T11:40:09.404Z,9.93
2017-11-16T11:41:18.231Z,9.81
2017-11-16T11:42:27.069Z,9.83
2017-11-16T11:43:36.226Z,9.91
2017-11-16T11:44:45.059Z,9.83
2017-11-16T11:45:54.094Z,9.84
2017-11-16T11:47:03.221Z,9.9
2017-11-16T11:48:12.052Z,9.86
2017-11-16T11:49:21.175Z,9.83
2017-11-16T11:50:29.998Z,9.9
2017-11-16T11:51:38.930Z,9.87
2017-11-16T11:52:48.039Z,9.79
2017-11-16T11:53:56.870Z,9.81
2017-11-16T11:55:05.701Z,9.89
2017-11-16T11:56:14.532Z,9.83
2017-11-16T11:57:23.642Z,9.78
2017-11-16T11:58:32.474Z,9.79
2017-11-16T11:59:41.307Z,9.78
2017-11-16T12:00:50.138Z,9.78
2017-11-16T12:01:58.968Z,9.84
2017-11-16T12:03:08.003Z,9.84
2017-11-16T12:04:16.834Z,9.78
2017-11-16T12:05:25.947Z,9.78
2017-11-16T12:06:35.098Z,9.78
2017-11-16T12:07:43.929Z,9.84
2017-11-16T12:08:52.863Z,9.84
2017-11-16T12:10:01.982Z,9.79
2017-11-16T12:11:10.809Z,9.78
2017-11-16T12:12:19.639Z,9.76
2017-11-16T12:13:28.472Z,9.9
2017-11-16T12:14:37.505Z,9.89
2017-11-16T12:15:46.338Z,9.83
2017-11-16T12:16:55.169Z,9.79
2017-11-16T12:18:04.003Z,9.84
2017-11-16T12:19:12.833Z,9.86
2017-11-16T12:20:21.766Z,9.81
2017-11-16T12:21:31.165Z,9.79
2017-11-16T12:22:39.995Z,9.9
2017-11-16T12:23:48.826Z,9.78
2017-11-16T12:24:57.658Z,9.9
2017-11-16T12:26:06.590Z,9.87
2017-11-16T12:27:15.422Z,9.81
2017-11-16T12:28:24.254Z,9.75
2017-11-16T12:29:33.084Z,9.84
2017-11-16T12:30:41.916Z,9.84
2017-11-16T12:31:51.340Z,9.86
2017-11-16T12:33:00.451Z,9.76
2017-11-16T12:34:09.281Z,9.81
2017-11-16T12:35:18.116Z,9.79
2017-11-16T12:36:26.945Z,9.83
2017-11-16T12:37:35.878Z,9.86
2017-11-16T12:38:44.709Z,9.91
2017-11-16T12:39:53.539Z,9.84
2017-11-16T12:41:02.371Z,9.9
2017-11-16T12:42:11.202Z,9.9
2017-11-16T12:43:20.084Z,9.83
2017-11-16T12:44:28.916Z,9.87
2017-11-16T12:45:37.748Z,9.81
2017-11-16T12:46:46.581Z,9.83
2017-11-16T12:47:55.415Z,9.93
2017-11-16T12:49:04.245Z,9.81
2017-11-16T12:50:13.075Z,9.9
2017-11-16T12:51:21.906Z,9.91
2017-11-16T12:52:30.739Z,9.87
2017-11-16T12:53:39.848Z,9.93
2017-11-16T12:54:48.830Z,9.93
2017-11-16T12:55:57.672Z,9.91
2017-11-16T12:57:06.489Z,9.94
2017-11-16T12:58:15.322Z,10.01
2017-11-16T12:59:24.154Z,10.01
2017-11-16T13:00:33.188Z,9.94
2017-11-16T13:01:42.303Z,9.97
2017-11-16T13:02:51.134Z,9.97
2017-11-16T13:03:59.972Z,10.02
2017-11-16T13:05:08.798Z,10.01
2017-11-16T13:06:17.729Z,9.97
2017-11-16T13:07:26.562Z,10.09
2017-11-16T13:08:35.673Z,10.05
2017-11-16T13:09:44.505Z,10.01
2017-11-16T13:10:53.338Z,10.02
2017-11-16T13:12:02.703Z,9.99
2017-11-16T13:13:11.822Z,9.99
2017-11-16T13:14:20.656Z,9.99
2017-11-16T13:15:29.490Z,10.01
2017-11-16T13:16:38.323Z,10.01
2017-11-16T13:17:47.355Z,10.01
2017-11-16T13:18:56.185Z,9.91
2017-11-16T13:20:05.015Z,10.04
2017-11-16T13:21:13.847Z,10.08
2017-11-16T13:22:22.679Z,10.11
2017-11-16T13:23:31.611Z,10.02
2017-11-16T13:24:40.450Z,10.14
2017-11-16T13:25:49.278Z,10.14
2017-11-16T13:26:58.116Z,10.11
2017-11-16T13:28:07.236Z,10.18
2017-11-16T13:29:16.119Z,10.17
2017-11-16T13:30:24.953Z,10.17
2017-11-16T13:31:34.067Z,10.26
2017-11-16T13:32:42.899Z,10.17
2017-11-16T13:33:51.732Z,10.22
2017-11-16T13:35:00.613Z,10.25
2017-11-16T13:36:09.447Z,10.22
2017-11-16T13:37:18.286Z,10.23
2017-11-16T13:38:27.131Z,10.22
2017-11-16T13:39:35.968Z,10.15
2017-11-16T13:40:44.902Z,10.25
2017-11-16T13:41:53.749Z,10.18
2017-11-16T13:43:02.589Z,10.23
2017-11-16T13:44:11.722Z,10.17
2017-11-16T13:45:20.586Z,10.14
2017-11-16T13:46:29.506Z,10.14
2017-11-16T13:47:38.345Z,10.25
2017-11-16T13:48:47.186Z,10.17
2017-11-16T13:49:56.027Z,10.11
2017-11-16T13:51:04.862Z,10.2
2017-11-16T13:52:13.797Z,10.2
2017-11-16T13:53:22.633Z,10.23
2017-11-16T13:54:31.464Z,10.22
2017-11-16T13:55:40.295Z,10.26
2017-11-16T13:56:49.128Z,10.2
2017-11-16T13:57:58.011Z,10.3
2017-11-16T13:59:06.852Z,10.25
2017-11-16T14:00:16.563Z,10.29
2017-11-16T14:01:25.395Z,10.25
2017-11-16T14:02:34.229Z,10.33
2017-11-16T14:03:43.069Z,10.34
2017-11-16T14:04:51.912Z,10.29
2017-11-16T14:06:01.040Z,10.32
2017-11-16T14:07:09.883Z,10.23
2017-11-16T14:08:18.723Z,10.23
2017-11-16T14:09:27.652Z,10.34
2017-11-16T14:10:36.484Z,10.3
2017-11-16T14:11:45.317Z,10.23
2017-11-16T14:12:54.149Z,10.26
2017-11-16T14:14:02.983Z,10.22
2017-11-16T14:15:11.915Z,10.33
2017-11-16T14:16:20.744Z,10.23
2017-11-16T14:17:29.575Z,10.34
2017-11-16T14:18:38.408Z,10.32
2017-11-16T14:19:47.271Z,10.32
2017-11-16T14:20:56.070Z,10.25
2017-11-16T14:22:04.904Z,10.25
2017-11-16T14:23:13.734Z,10.3
2017-11-16T14:24:22.574Z,10.29
2017-11-16T14:25:31.413Z,10.33
2017-11-16T14:26:40.527Z,10.32
2017-11-16T14:27:49.362Z,10.29
2017-11-16T14:28:58.196Z,10.3
2017-11-16T14:30:07.310Z,10.25
2017-11-16T14:31:16.144Z,10.25
2017-11-16T14:32:25.075Z,10.3
2017-11-16T14:33:34.188Z,10.25
2017-11-16T14:34:43.028Z,10.34
2017-11-16T14:35:51.862Z,10.3
2017-11-16T14:37:00.710Z,10.27
2017-11-16T14:38:09.784Z,10.2
2017-11-16T14:39:18.616Z,10.25
2017-11-16T14:40:27.450Z,10.25
2017-11-16T14:41:36.640Z,10.32
2017-11-16T14:42:45.473Z,10.32
2017-11-16T14:43:54.605Z,10.25
2017-11-16T14:45:03.442Z,10.25
2017-11-16T14:46:12.301Z,10.2
2017-11-16T14:47:21.734Z,10.25
2017-11-16T14:48:30.768Z,10.15
2017-11-16T14:49:39.601Z,10.22
2017-11-16T14:50:48.704Z,10.23
2017-11-16T14:51:57.515Z,10.2
2017-11-16T14:53:06.623Z,10.23
2017-11-16T14:54:15.764Z,10.32
2017-11-16T14:55:25.553Z,10.26
2017-11-16T14:56:34.543Z,10.15
2017-11-16T14:57:43.382Z,10.26
2017-11-16T14:58:52.218Z,10.18
2017-11-16T15:00:01.051Z,10.12
2017-11-16T15:01:09.995Z,10.17
2017-11-16T15:02:18.840Z,10.17
2017-11-16T15:03:27.687Z,10.18
2017-11-16T15:04:36.530Z,10.2
2017-11-16T15:05:45.374Z,10.2
2017-11-16T15:06:54.270Z,10.26
2017-11-16T15:08:03.112Z,10.2
2017-11-16T15:09:11.953Z,10.18
2017-11-16T15:10:20.797Z,10.18
2017-11-16T15:11:29.639Z,10.17
2017-11-16T15:12:38.531Z,10.15
2017-11-16T15:13:47.374Z,10.25
2017-11-16T15:14:56.215Z,10.15
2017-11-16T15:16:05.057Z,10.17